Time;durP1;ratioP1;P1;durP2;ratioP2;P2;SDS_P1;SDS_P2;PMS_P1;PMS_P2;Temp;Humidity;BMP_temperature;BMP_pressure;BME280_temperature;BME280_humidity;BME280_pressure;Samples;Min_cycle;Max_cycle;Signal;HPM_P1;HPM_P2
2022/03/26 00:01:32;;;;;;;;;;;;;;;25.86;34.58;94880.28;4935439;28;7699;-60
2022/03/26 00:04:01;;;;;;;;;;;;;;;25.87;34.37;94892.81;4919643;28;9325;-60
2022/03/26 00:06:27;;;;;;;;;;;;;;;25.86;34.35;94887.81;4935073;28;9477;-60
2022/03/26 00:08:59;;;;;;;;;;;;;;;25.86;34.35;94888.56;4929649;29;7221;-60
2022/03/26 00:11:26;;;;;;;;;;;;;;;25.86;34.74;94891.31;4950795;28;7342;-60
2022/03/26 00:13:54;;;;;;;;;;;;;;;25.88;34.53;94894.31;4935533;28;6996;-60
2022/03/26 00:16:20;;;;;;;;;;;;;;;25.88;34.13;94893.59;4942638;28;7270;-60
2022/03/26 00:19:16;;;;;;;;;;;;;;;25.86;34.33;94896.81;4937283;28;8930;-60
2022/03/26 00:21:45;;;;;;;;;;;;;;;25.87;34.60;94892.06;4876599;29;8787;-60
2022/03/26 00:24:29;;;;;;;;;;;;;;;25.84;34.81;94885.56;4881116;29;7077;-60
2022/03/26 00:27:12;;;;;;;;;;;;;;;25.83;34.16;94889.56;4895360;29;7331;-60
2022/03/26 00:29:38;;;;;;;;;;;;;;;25.83;34.54;94889.56;4875986;29;7230;-60
2022/03/26 00:32:06;;;;;;;;;;;;;;;25.82;34.61;94888.06;4873481;29;8826;-60
2022/03/26 00:34:32;;;;;;;;;;;;;;;25.84;34.01;94890.31;4889542;29;7522;-60
2022/03/26 00:36:59;;;;;;;;;;;;;;;25.84;34.82;94893.06;4892198;29;9073;-60
2022/03/26 00:39:28;;;;;;;;;;;;;;;25.81;34.48;94892.06;4890191;29;7279;-60
2022/03/26 00:41:54;;;;;;;;;;;;;;;25.79;34.13;94891.81;4886219;29;8265;-60
2022/03/26 00:44:38;;;;;;;;;;;;;;;25.78;34.59;94890.31;4884040;29;7373;-60
2022/03/26 00:47:14;;;;;;;;;;;;;;;25.76;34.33;94887.31;4881307;29;9086;-60
2022/03/26 00:49:47;;;;;;;;;;;;;;;25.77;34.17;94883.31;4893708;29;7270;-60
2022/03/26 00:52:16;;;;;;;;;;;;;;;25.78;34.98;94886.81;4893585;29;6992;-60
2022/03/26 00:55:00;;;;;;;;;;;;;;;25.77;34.33;94880.56;4893766;29;9257;-60
2022/03/26 00:57:46;;;;;;;;;;;;;;;25.78;34.27;94886.81;4898722;28;9136;-60
2022/03/26 01:00:18;;;;;;;;;;;;;;;25.74;34.09;94884.31;4938609;28;9386;-60
2022/03/26 01:02:44;;;;;;;;;;;;;;;25.76;34.31;94876.28;4942795;28;7239;-60
2022/03/26 01:05:13;;;;;;;;;;;;;;;25.74;34.19;94881.56;4937588;28;8779;-60
2022/03/26 01:07:55;;;;;;;;;;;;;;;25.72;34.46;94877.78;4953527;28;9192;-60
2022/03/26 01:10:22;;;;;;;;;;;;;;;25.73;34.64;94887.56;4928891;28;9052;-60
2022/03/26 01:12:48;;;;;;;;;;;;;;;25.70;34.08;94872.78;4950312;28;7292;-60
2022/03/26 01:15:17;;;;;;;;;;;;;;;25.71;33.74;94879.06;4950324;28;6998;-60
2022/03/26 01:17:44;;;;;;;;;;;;;;;25.70;34.00;94883.03;4953185;28;8758;-60
2022/03/26 01:20:26;;;;;;;;;;;;;;;25.69;34.04;94874.03;4924133;28;7546;-60
2022/03/26 01:23:10;;;;;;;;;;;;;;;25.69;34.12;94882.28;4933495;29;7300;-60
2022/03/26 01:25:45;;;;;;;;;;;;;;;25.69;33.76;94879.53;4952510;28;9067;-60
2022/03/26 01:28:12;;;;;;;;;;;;;;;25.69;34.35;94876.78;4938223;28;7245;-60
2022/03/26 01:30:41;;;;;;;;;;;;;;;25.70;34.13;94872.78;4937378;28;7259;-60
2022/03/26 01:33:07;;;;;;;;;;;;;;;25.68;33.88;94875.28;4940786;28;7667;-60
2022/03/26 01:35:35;;;;;;;;;;;;;;;25.68;34.47;94869.03;4953928;28;9489;-60
2022/03/26 01:38:04;;;;;;;;;;;;;;;25.66;34.22;94866.78;4937955;28;7240;-60
2022/03/26 01:40:35;;;;;;;;;;;;;;;25.66;33.99;94866.00;4928618;29;9172;-60
2022/03/26 01:43:06;;;;;;;;;;;;;;;25.65;34.44;94865.25;4937423;28;9072;-60
2022/03/26 01:45:38;;;;;;;;;;;;;;;25.64;34.15;94869.28;4935124;28;7135;-60
2022/03/26 01:48:18;;;;;;;;;;;;;;;25.64;33.83;94868.53;4928918;28;7248;-60
2022/03/26 01:50:47;;;;;;;;;;;;;;;25.62;33.80;94855.22;4953535;28;8845;-60
2022/03/26 01:53:52;;;;;;;;;;;;;;;25.63;34.37;94859.50;4952569;28;7304;-60
2022/03/26 01:56:38;;;;;;;;;;;;;;;25.63;33.62;94861.50;4930218;28;9096;-60
2022/03/26 01:59:08;;;;;;;;;;;;;;;25.62;34.19;94857.97;4937204;28;7230;-60
2022/03/26 02:01:42;;;;;;;;;;;;;;;25.58;33.98;94854.72;4937639;28;7267;-60
2022/03/26 02:04:15;;;;;;;;;;;;;;;25.58;33.46;94865.00;4954828;28;9282;-60
2022/03/26 02:06:55;;;;;;;;;;;;;;;25.59;34.31;94864.50;4943856;28;9796;-60
2022/03/26 02:09:26;;;;;;;;;;;;;;;25.59;34.08;94861.00;4935907;28;8022;-60
2022/03/26 02:11:52;;;;;;;;;;;;;;;25.58;33.87;94863.00;4952501;28;7451;-60
2022/03/26 02:14:18;;;;;;;;;;;;;;;25.57;34.37;94864.25;4935066;28;9218;-60
2022/03/26 02:16:44;;;;;;;;;;;;;;;25.58;34.10;94863.00;4934501;28;7305;-60
2022/03/26 02:19:11;;;;;;;;;;;;;;;25.56;33.64;94862.75;4932968;28;6980;-60
2022/03/26 02:21:37;;;;;;;;;;;;;;;25.56;34.02;94859.97;4932949;28;7221;-60
2022/03/26 02:24:06;;;;;;;;;;;;;;;25.55;34.00;94855.75;4934883;28;9094;-60
2022/03/26 02:26:32;;;;;;;;;;;;;;;25.54;34.05;94859.72;4942730;28;7302;-60
2022/03/26 02:29:09;;;;;;;;;;;;;;;25.52;33.59;94862.25;4950269;28;9409;-60
2022/03/26 02:31:38;;;;;;;;;;;;;;;25.54;34.40;94858.97;4931779;28;8940;-60
2022/03/26 02:34:08;;;;;;;;;;;;;;;25.51;34.08;94848.97;4943988;28;9075;-60
2022/03/26 02:36:34;;;;;;;;;;;;;;;25.54;33.55;94854.22;4953227;28;8814;-60
2022/03/26 02:39:03;;;;;;;;;;;;;;;25.51;33.65;94849.72;4937294;28;8149;-60
2022/03/26 02:41:29;;;;;;;;;;;;;;;25.51;34.15;94849.72;4939007;28;7219;-60
2022/03/26 02:44:04;;;;;;;;;;;;;;;25.53;34.03;94847.22;4953953;28;9634;-60
2022/03/26 02:46:36;;;;;;;;;;;;;;;25.51;33.86;94849.72;4931892;28;7484;-60
2022/03/26 02:49:03;;;;;;;;;;;;;;;25.50;33.62;94850.97;4933437;29;7258;-60
2022/03/26 02:51:31;;;;;;;;;;;;;;;25.50;33.32;94852.97;4933775;29;9203;-60
2022/03/26 02:53:57;;;;;;;;;;;;;;;25.50;33.78;94848.22;4935534;29;7043;-60
2022/03/26 02:56:23;;;;;;;;;;;;;;;25.49;33.62;94846.69;4947513;28;9268;-60
2022/03/26 02:58:50;;;;;;;;;;;;;;;25.49;33.80;94848.72;4933333;29;7222;-60
2022/03/26 03:01:16;;;;;;;;;;;;;;;25.45;33.72;94851.72;4949794;28;6993;-60
2022/03/26 03:03:42;;;;;;;;;;;;;;;25.47;34.30;94849.19;4933304;29;7524;-60
2022/03/26 03:06:11;;;;;;;;;;;;;;;25.46;33.54;94852.47;4931218;29;9134;-60
2022/03/26 03:08:39;;;;;;;;;;;;;;;25.46;34.09;94847.72;4933146;29;7287;-60
2022/03/26 03:11:05;;;;;;;;;;;;;;;25.47;33.45;94853.97;4950548;28;8779;-60
2022/03/26 03:13:31;;;;;;;;;;;;;;;25.46;34.43;94846.97;4942374;28;7191;-60
2022/03/26 03:15:58;;;;;;;;;;;;;;;25.46;33.99;94849.72;4948477;28;9453;-60
2022/03/26 03:18:28;;;;;;;;;;;;;;;25.44;33.93;94850.22;4945129;28;9116;-60
2022/03/26 03:20:57;;;;;;;;;;;;;;;25.41;33.77;94846.44;4941218;28;6980;-60
2022/03/26 03:23:34;;;;;;;;;;;;;;;25.44;33.94;94855.72;4932944;28;8189;-60
2022/03/26 03:26:01;;;;;;;;;;;;;;;25.43;34.11;94849.47;4950603;28;8157;-60
2022/03/26 03:28:47;;;;;;;;;;;;;;;25.42;33.77;94845.19;4937761;28;8706;-60
2022/03/26 03:31:17;;;;;;;;;;;;;;;25.38;33.30;94839.16;4950789;28;8029;-60
2022/03/26 03:33:50;;;;;;;;;;;;;;;25.41;33.80;94846.44;4935424;29;9278;-60
2022/03/26 03:36:18;;;;;;;;;;;;;;;25.42;33.95;94852.72;4927145;29;7096;-60
2022/03/26 03:38:48;;;;;;;;;;;;;;;25.39;33.43;94851.69;4953057;28;7267;-60
2022/03/26 03:41:14;;;;;;;;;;;;;;;25.41;33.82;94846.44;4956202;28;7271;-60
2022/03/26 03:43:41;;;;;;;;;;;;;;;25.40;33.49;94855.19;4940525;28;7264;-60
2022/03/26 03:46:13;;;;;;;;;;;;;;;25.40;33.63;94855.19;4935304;28;6993;-60
2022/03/26 03:49:00;;;;;;;;;;;;;;;25.38;33.95;94852.19;4940216;28;9167;-60
2022/03/26 03:51:32;;;;;;;;;;;;;;;25.37;33.40;94856.94;4940113;28;9592;-59
2022/03/26 03:54:09;;;;;;;;;;;;;;;25.38;33.67;94849.44;4957078;28;7245;-60
2022/03/26 03:57:04;;;;;;;;;;;;;;;25.38;33.32;94857.69;4944089;28;9069;-60
2022/03/26 03:59:41;;;;;;;;;;;;;;;25.36;33.05;94855.41;4931467;28;9088;-60
2022/03/26 04:02:16;;;;;;;;;;;;;;;25.36;33.78;94858.16;4939199;28;9025;-60
2022/03/26 04:04:59;;;;;;;;;;;;;;;25.36;33.39;94857.41;4940011;28;7287;-60
2022/03/26 04:07:25;;;;;;;;;;;;;;;25.37;33.72;94861.69;4940344;28;9111;-60
2022/03/26 04:10:07;;;;;;;;;;;;;;;25.35;33.38;94859.44;4939546;28;7827;-60
2022/03/26 04:13:11;;;;;;;;;;;;;;;25.35;33.23;94859.44;4931566;28;7239;-60
2022/03/26 04:15:36;;;;;;;;;;;;;;;25.35;33.54;94858.69;4937181;29;7289;-60
2022/03/26 04:18:14;;;;;;;;;;;;;;;25.34;33.33;94866.19;4935261;28;7042;-60
2022/03/26 04:20:40;;;;;;;;;;;;;;;25.34;33.85;94865.41;4955869;28;9381;-60
2022/03/26 04:23:24;;;;;;;;;;;;;;;25.34;33.62;94865.41;4939641;28;8625;-60
2022/03/26 04:26:16;;;;;;;;;;;;;;;25.34;33.80;94862.66;4939842;28;7550;-60
2022/03/26 04:28:42;;;;;;;;;;;;;;;25.32;33.22;94859.66;4918671;29;8977;-60
2022/03/26 04:31:12;;;;;;;;;;;;;;;25.30;33.68;94865.69;4926067;29;7230;-59
2022/03/26 04:33:48;;;;;;;;;;;;;;;25.31;33.72;94863.69;4915981;29;7471;-60
2022/03/26 04:36:26;;;;;;;;;;;;;;;25.31;33.95;94860.94;4915545;29;7503;-59
2022/03/26 04:38:52;;;;;;;;;;;;;;;25.30;34.04;94865.69;4919491;29;7385;-60
2022/03/26 04:41:18;;;;;;;;;;;;;;;25.30;33.46;94862.16;4923188;29;7025;-60
2022/03/26 04:43:45;;;;;;;;;;;;;;;25.31;33.25;94869.19;4921562;29;7908;-60
2022/03/26 04:46:11;;;;;;;;;;;;;;;25.28;33.87;94864.66;4922704;29;7212;-60
2022/03/26 04:48:39;;;;;;;;;;;;;;;25.29;33.61;94866.91;4908047;29;10068;-60
2022/03/26 04:51:07;;;;;;;;;;;;;;;25.29;33.38;94866.91;4914679;29;7658;-60
2022/03/26 04:53:37;;;;;;;;;;;;;;;25.29;33.08;94864.16;4914004;29;7255;-60
2022/03/26 04:56:04;;;;;;;;;;;;;;;25.28;33.03;94870.16;4917758;29;7493;-60
2022/03/26 04:58:30;;;;;;;;;;;;;;;25.27;33.57;94880.44;4915210;29;9028;-59
2022/03/26 05:00:56;;;;;;;;;;;;;;;25.27;33.69;94874.91;4915182;29;7673;-60
2022/03/26 05:03:22;;;;;;;;;;;;;;;25.28;33.34;94881.19;4907966;29;7112;-59
2022/03/26 05:05:48;;;;;;;;;;;;;;;25.27;32.96;94879.69;4917401;28;7073;-59
2022/03/26 05:08:21;;;;;;;;;;;;;;;25.26;33.46;94886.44;4945166;28;9188;-59
2022/03/26 05:10:50;;;;;;;;;;;;;;;25.25;33.20;94877.41;4945600;28;8629;-59
2022/03/26 05:13:16;;;;;;;;;;;;;;;25.27;33.61;94885.19;4940440;28;7272;-59
2022/03/26 05:15:42;;;;;;;;;;;;;;;25.27;32.94;94887.97;4947467;28;9027;-60
2022/03/26 05:18:08;;;;;;;;;;;;;;;25.25;34.90;94877.41;4944325;28;6980;-59
2022/03/26 05:20:35;;;;;;;;;;;;;;;25.23;33.91;94888.19;4938989;28;7221;-59
2022/03/26 05:23:02;;;;;;;;;;;;;;;25.22;34.64;94883.19;4942511;28;9110;-59
2022/03/26 05:25:31;;;;;;;;;;;;;;;25.25;34.13;94882.19;4921902;28;9057;-60
2022/03/26 05:27:59;;;;;;;;;;;;;;;25.25;34.53;94887.69;4954199;28;7151;-60
2022/03/26 05:30:28;;;;;;;;;;;;;;;25.24;33.55;94891.69;4929813;29;9011;-60
2022/03/26 05:33:01;;;;;;;;;;;;;;;25.22;33.62;94902.44;4933012;28;7589;-60
2022/03/26 05:35:57;;;;;;;;;;;;;;;25.19;33.21;94908.94;4945435;28;9184;-60
2022/03/26 05:38:23;;;;;;;;;;;;;;;25.19;33.65;94906.19;4896518;29;9574;-60
2022/03/26 05:40:49;;;;;;;;;;;;;;;25.18;32.90;94905.44;4891926;29;8669;-60
2022/03/26 05:43:24;;;;;;;;;;;;;;;25.17;32.96;94914.19;4894925;29;9173;-60
2022/03/26 05:45:59;;;;;;;;;;;;;;;25.13;32.58;94913.66;4890952;29;7092;-59
2022/03/26 05:48:36;;;;;;;;;;;;;;;25.14;32.52;94915.91;4895045;29;7019;-60
2022/03/26 05:51:14;;;;;;;;;;;;;;;25.14;32.44;94920.69;4910985;29;9084;-60
2022/03/26 05:53:50;;;;;;;;;;;;;;;25.13;32.28;94924.69;4894401;29;7247;-60
2022/03/26 05:56:20;;;;;;;;;;;;;;;25.14;32.02;94926.19;4902336;29;7212;-60
2022/03/26 05:58:50;;;;;;;;;;;;;;;25.15;31.99;94930.44;4882022;29;9073;-59
2022/03/26 06:01:16;;;;;;;;;;;;;;;25.12;32.11;94928.69;4905966;29;8927;-60
2022/03/26 06:03:44;;;;;;;;;;;;;;;25.12;31.73;94931.44;4903691;29;9159;-60
2022/03/26 06:06:10;;;;;;;;;;;;;;;25.09;31.55;94927.69;4898340;29;6994;-60
2022/03/26 06:08:52;;;;;;;;;;;;;;;25.07;30.80;94924.69;4897966;29;8750;-60
2022/03/26 06:11:18;;;;;;;;;;;;;;;25.09;31.31;94935.19;4898904;29;9153;-60
2022/03/26 06:13:49;;;;;;;;;;;;;;;25.07;30.83;94938.44;4891538;29;7061;-60
2022/03/26 06:16:39;;;;;;;;;;;;;;;25.07;30.87;94934.94;4954198;28;9107;-60
2022/03/26 06:19:16;;;;;;;;;;;;;;;25.06;31.21;94931.41;4928914;28;7456;-60
2022/03/26 06:21:57;;;;;;;;;;;;;;;25.07;31.94;94932.19;4937351;28;7182;-60
2022/03/26 06:24:29;;;;;;;;;;;;;;;25.04;31.49;94941.41;4954085;28;9138;-61
2022/03/26 06:27:04;;;;;;;;;;;;;;;25.02;31.07;94941.16;4937320;28;7281;-61
2022/03/26 06:29:39;;;;;;;;;;;;;;;25.03;31.36;94937.94;4943235;28;8187;-61
2022/03/26 06:32:41;;;;;;;;;;;;;;;25.03;31.46;94943.44;4950110;28;7162;-60
2022/03/26 06:35:08;;;;;;;;;;;;;;;25.02;31.44;94933.66;4917013;29;8169;-60
2022/03/26 06:37:34;;;;;;;;;;;;;;;25.04;30.97;94938.66;4916475;29;7449;-60
2022/03/26 06:40:01;;;;;;;;;;;;;;;25.03;31.52;94932.41;4923019;29;9227;-61
2022/03/26 06:42:30;;;;;;;;;;;;;;;25.05;31.43;94940.19;4909829;29;8878;-60
2022/03/26 06:45:01;;;;;;;;;;;;;;;25.04;31.59;94944.16;4913775;29;9314;-60
2022/03/26 06:47:41;;;;;;;;;;;;;;;25.03;31.32;94945.41;4898877;29;9467;-60
2022/03/26 06:50:08;;;;;;;;;;;;;;;25.04;31.30;94944.16;4924166;29;8708;-60
2022/03/26 06:52:34;;;;;;;;;;;;;;;25.06;31.40;94953.44;4913340;29;9472;-59
2022/03/26 06:55:11;;;;;;;;;;;;;;;25.05;31.35;94957.44;4918082;29;7070;-58
2022/03/26 06:57:38;;;;;;;;;;;;;;;25.06;31.54;94958.19;4908233;29;7033;-58
2022/03/26 07:00:09;;;;;;;;;;;;;;;25.05;31.44;94957.44;4904855;29;9301;-58
2022/03/26 07:02:36;;;;;;;;;;;;;;;25.03;31.42;94957.19;4916732;29;8716;-58
2022/03/26 07:05:27;;;;;;;;;;;;;;;25.04;31.36;94960.66;4919791;29;9036;-58
2022/03/26 07:08:04;;;;;;;;;;;;;;;25.03;31.16;94954.44;4913543;29;9470;-57
2022/03/26 07:10:47;;;;;;;;;;;;;;;25.03;31.24;94959.19;4929146;29;7027;-57
2022/03/26 07:13:14;;;;;;;;;;;;;;;25.00;31.48;94960.16;4938311;28;7277;-58
2022/03/26 07:15:53;;;;;;;;;;;;;;;25.01;31.50;94967.19;4932972;29;7224;-58
2022/03/26 07:18:21;;;;;;;;;;;;;;;25.01;31.65;94969.94;4940954;28;9247;-58
2022/03/26 07:20:47;;;;;;;;;;;;;;;25.02;31.72;94971.44;4936668;28;6980;-58
2022/03/26 07:23:24;;;;;;;;;;;;;;;24.99;31.69;94972.44;4952333;28;8828;-58
2022/03/26 07:26:01;;;;;;;;;;;;;;;25.00;31.26;94965.66;4938427;28;7107;-58
2022/03/26 07:28:27;;;;;;;;;;;;;;;25.00;32.00;94969.19;4958049;28;6862;-58
2022/03/26 07:31:02;;;;;;;;;;;;;;;24.99;31.33;94964.16;4957654;28;7222;-58
2022/03/26 07:33:46;;;;;;;;;;;;;;;24.99;31.65;94964.16;4939371;28;7361;-58
2022/03/26 07:36:15;;;;;;;;;;;;;;;25.00;31.35;94960.16;4929148;28;7196;-59
2022/03/26 07:38:42;;;;;;;;;;;;;;;25.02;31.69;94963.16;4940501;28;7276;-58
2022/03/26 07:41:08;;;;;;;;;;;;;;;24.98;31.00;94959.91;4939814;28;9038;-59
2022/03/26 07:43:37;;;;;;;;;;;;;;;25.04;30.85;94971.69;4939833;28;7719;-59
2022/03/26 07:46:03;;;;;;;;;;;;;;;25.03;30.47;94967.44;4960155;28;7078;-59
2022/03/26 07:48:35;;;;;;;;;;;;;;;25.04;30.88;94974.44;4946028;28;8849;-59
2022/03/26 07:51:03;;;;;;;;;;;;;;;25.02;30.31;94974.19;4957663;28;6979;-59
2022/03/26 07:54:04;;;;;;;;;;;;;;;25.02;30.86;94968.66;4948530;28;7008;-60
2022/03/26 07:56:43;;;;;;;;;;;;;;;25.00;31.23;94971.94;4947353;28;7440;-60
2022/03/26 07:59:29;;;;;;;;;;;;;;;25.02;31.37;94968.66;4950540;28;7186;-60
2022/03/26 08:02:05;;;;;;;;;;;;;;;25.01;30.57;94972.69;4948784;28;7162;-60
2022/03/26 08:04:41;;;;;;;;;;;;;;;25.01;31.08;94973.41;4936629;29;9573;-60
2022/03/26 08:07:13;;;;;;;;;;;;;;;25.01;31.40;94984.41;4960637;28;9600;-60
2022/03/26 08:09:51;;;;;;;;;;;;;;;24.99;31.14;94981.41;4940162;28;9052;-60
2022/03/26 08:12:17;;;;;;;;;;;;;;;25.00;31.48;94984.94;4932317;29;7269;-60
2022/03/26 08:14:45;;;;;;;;;;;;;;;25.02;31.40;94980.44;4925078;29;7473;-60
2022/03/26 08:17:12;;;;;;;;;;;;;;;25.03;31.70;94983.94;4953150;28;7076;-60
2022/03/26 08:19:47;;;;;;;;;;;;;;;25.05;31.55;94992.47;4956493;28;7302;-60
2022/03/26 08:22:13;;;;;;;;;;;;;;;25.07;31.81;94992.72;4946803;28;8737;-60
2022/03/26 08:24:48;;;;;;;;;;;;;;;25.05;31.51;94995.22;4946160;28;9760;-60
2022/03/26 08:27:22;;;;;;;;;;;;;;;25.08;31.41;94999.72;4934541;28;7947;-60
2022/03/26 08:30:04;;;;;;;;;;;;;;;25.06;31.58;94996.72;4953065;28;9027;-60
2022/03/26 08:33:03;;;;;;;;;;;;;;;25.07;31.82;94993.47;4946521;28;7563;-60
2022/03/26 08:35:39;;;;;;;;;;;;;;;25.06;31.88;94999.47;4875855;29;9090;-60
2022/03/26 08:38:05;;;;;;;;;;;;;;;25.04;31.47;94996.44;4894144;29;7235;-60
2022/03/26 08:40:32;;;;;;;;;;;;;;;25.07;31.50;94998.22;4873890;29;9312;-60
2022/03/26 08:43:01;;;;;;;;;;;;;;;25.09;31.42;94992.97;4876485;29;8428;-60
2022/03/26 08:45:28;;;;;;;;;;;;;;;25.10;31.51;94997.25;4879531;29;8874;-60
2022/03/26 08:48:09;;;;;;;;;;;;;;;25.10;31.06;95005.50;4873987;29;9084;-60
2022/03/26 08:51:01;;;;;;;;;;;;;;;25.09;31.38;95002.00;4879347;29;7312;-60
2022/03/26 08:53:29;;;;;;;;;;;;;;;25.11;31.93;95001.50;4874533;29;9183;-60
2022/03/26 08:56:26;;;;;;;;;;;;;;;25.12;31.25;94998.25;4895521;29;7004;-60
2022/03/26 08:58:57;;;;;;;;;;;;;;;25.10;31.61;94997.25;4891539;29;7273;-60
2022/03/26 09:01:25;;;;;;;;;;;;;;;25.14;31.54;95006.03;4893741;29;6993;-60
2022/03/26 09:03:57;;;;;;;;;;;;;;;25.15;31.41;94999.25;4890170;29;7352;-60
2022/03/26 09:06:23;;;;;;;;;;;;;;;25.15;31.99;95002.00;4878542;29;7129;-60
2022/03/26 09:08:55;;;;;;;;;;;;;;;25.15;31.25;95002.78;4876532;29;8948;-60
2022/03/26 09:11:21;;;;;;;;;;;;;;;25.15;31.99;94999.25;4913693;29;9467;-60
2022/03/26 09:13:50;;;;;;;;;;;;;;;25.15;31.98;94997.28;4928296;29;9002;-60
2022/03/26 09:16:17;;;;;;;;;;;;;;;25.16;31.70;95001.53;4926655;29;7200;-60
2022/03/26 09:18:43;;;;;;;;;;;;;;;25.14;31.68;94992.28;4912877;29;7157;-60
2022/03/26 09:21:10;;;;;;;;;;;;;;;25.14;31.49;94998.50;4926999;29;9058;-60
2022/03/26 09:23:36;;;;;;;;;;;;;;;25.14;31.44;94987.50;4916429;29;7248;-60
2022/03/26 09:26:04;;;;;;;;;;;;;;;25.14;32.02;94990.25;4918403;29;7047;-60
2022/03/26 09:28:30;;;;;;;;;;;;;;;25.14;31.87;95000.53;4925082;29;8503;-60
2022/03/26 09:30:59;;;;;;;;;;;;;;;25.15;32.26;94982.75;4911544;29;7304;-60
2022/03/26 09:33:25;;;;;;;;;;;;;;;25.14;32.21;94992.28;4927210;29;7138;-60
2022/03/26 09:35:51;;;;;;;;;;;;;;;25.14;32.20;94990.25;4932887;28;9421;-60
2022/03/26 09:38:19;;;;;;;;;;;;;;;25.13;32.02;94986.00;4934530;28;9039;-60
2022/03/26 09:40:49;;;;;;;;;;;;;;;25.14;31.75;94987.50;4928206;28;9031;-60
2022/03/26 09:43:18;;;;;;;;;;;;;;;25.15;31.99;94982.75;4939659;28;8799;-60
2022/03/26 09:45:44;;;;;;;;;;;;;;;25.12;31.96;94984.47;4935518;28;7569;-60
2022/03/26 09:48:16;;;;;;;;;;;;;;;25.14;32.28;94986.75;4937642;28;9276;-61
2022/03/26 09:50:43;;;;;;;;;;;;;;;25.12;32.30;94978.25;4927774;28;7165;-60
2022/03/26 09:53:26;;;;;;;;;;;;;;;25.10;32.17;94981.47;4937310;28;8916;-60
2022/03/26 09:55:55;;;;;;;;;;;;;;;25.12;31.85;94984.47;4920631;28;8476;-60
2022/03/26 09:58:21;;;;;;;;;;;;;;;25.13;32.12;94986.00;4953192;28;9142;-60
2022/03/26 10:00:49;;;;;;;;;;;;;;;25.15;31.99;94989.00;4954623;28;9168;-60
2022/03/26 10:03:22;;;;;;;;;;;;;;;25.16;32.03;94989.78;4952868;28;9028;-60
2022/03/26 10:06:01;;;;;;;;;;;;;;;25.14;32.33;94989.50;4946293;28;8946;-60
2022/03/26 10:08:38;;;;;;;;;;;;;;;25.10;32.55;94986.97;4952254;28;9055;-60
2022/03/26 10:11:06;;;;;;;;;;;;;;;25.10;32.12;94986.25;4937009;28;8275;-60
2022/03/26 10:13:42;;;;;;;;;;;;;;;25.12;32.55;94978.25;4948847;28;7662;-60
2022/03/26 10:16:28;;;;;;;;;;;;;;;25.12;32.56;94978.25;4950442;28;8760;-60
2022/03/26 10:19:03;;;;;;;;;;;;;;;25.11;32.28;94980.25;4942986;28;8952;-60
2022/03/26 10:21:29;;;;;;;;;;;;;;;25.09;32.68;94974.47;4953752;28;9069;-60
2022/03/26 10:24:01;;;;;;;;;;;;;;;25.16;32.37;94976.00;4937205;28;6978;-60
2022/03/26 10:26:28;;;;;;;;;;;;;;;25.14;32.47;94967.50;4939053;28;7152;-60
2022/03/26 10:28:56;;;;;;;;;;;;;;;25.13;32.69;94974.22;4933583;28;7509;-60
2022/03/26 10:35:04;;;;;;;;;;;;;;;25.14;32.90;94975.75;4954004;28;8472;-60
2022/03/26 10:37:45;;;;;;;;;;;;;;;25.17;32.66;94972.00;4898114;29;9091;-60
2022/03/26 10:40:26;;;;;;;;;;;;;;;25.15;32.69;94969.75;4913906;29;9085;-60
2022/03/26 10:42:58;;;;;;;;;;;;;;;25.16;32.87;94974.00;4913243;29;7873;-60
2022/03/26 10:45:26;;;;;;;;;;;;;;;25.16;32.75;94970.50;4906217;29;8036;-60
2022/03/26 10:47:56;;;;;;;;;;;;;;;25.18;32.64;94970.75;4896964;29;7280;-60
2022/03/26 10:50:24;;;;;;;;;;;;;;;25.18;33.01;94973.50;4906481;29;7491;-60
2022/03/26 10:52:55;;;;;;;;;;;;;;;25.20;32.28;94973.78;4898109;29;9081;-60
2022/03/26 10:55:28;;;;;;;;;;;;;;;25.21;33.13;94980.75;4897556;29;7046;-60
2022/03/26 10:57:57;;;;;;;;;;;;;;;25.19;32.65;94975.00;4893165;29;9069;-60
2022/03/26 11:00:23;;;;;;;;;;;;;;;25.20;32.88;94973.78;4897014;29;7980;-60
2022/03/26 11:02:50;;;;;;;;;;;;;;;25.23;33.26;94975.50;4907756;29;8261;-60
2022/03/26 11:05:16;;;;;;;;;;;;;;;25.21;33.27;94978.00;4893775;29;7270;-60
2022/03/26 11:07:43;;;;;;;;;;;;;;;25.25;32.96;94975.81;4910106;29;9107;-60
2022/03/26 11:10:12;;;;;;;;;;;;;;;25.26;32.63;94978.06;4894500;29;9090;-60
2022/03/26 11:12:48;;;;;;;;;;;;;;;25.28;32.78;94969.28;4922679;29;7099;-60
2022/03/26 11:15:51;;;;;;;;;;;;;;;25.29;33.52;94970.81;4923782;29;7063;-60
2022/03/26 11:18:32;;;;;;;;;;;;;;;25.29;32.71;94970.81;4950495;29;7072;-60
2022/03/26 11:21:20;;;;;;;;;;;;;;;25.31;32.73;94974.56;4939475;28;8997;-61
2022/03/26 11:24:16;;;;;;;;;;;;;;;25.32;33.24;94967.03;4933722;28;9179;-61
2022/03/26 11:26:53;;;;;;;;;;;;;;;25.31;33.40;94969.06;4923148;28;9588;-60
2022/03/26 11:29:49;;;;;;;;;;;;;;;25.32;33.14;94967.81;4938376;28;7200;-60
2022/03/26 11:32:18;;;;;;;;;;;;;;;25.31;32.86;94962.81;4942015;28;8262;-60
2022/03/26 11:34:46;;;;;;;;;;;;;;;25.32;32.72;94958.78;4931295;28;8956;-61
2022/03/26 11:37:21;;;;;;;;;;;;;;;25.33;33.40;94963.06;4935000;29;8936;-60
2022/03/26 11:39:51;;;;;;;;;;;;;;;25.32;33.07;94959.53;4940340;29;9286;-60
2022/03/26 11:42:37;;;;;;;;;;;;;;;25.35;33.07;94957.81;4937129;29;7927;-61
2022/03/26 11:51:19;;;;;;;;;;;;;;;25.38;33.57;94948.56;4947308;28;7200;-60
2022/03/26 11:53:58;;;;;;;;;;;;;;;25.36;33.62;94945.53;4944266;28;7081;-60
2022/03/26 11:56:43;;;;;;;;;;;;;;;25.41;33.67;94953.06;4935496;29;9088;-60
2022/03/26 11:59:41;;;;;;;;;;;;;;;25.40;33.71;94949.56;4954091;28;9047;-60
2022/03/26 12:02:34;;;;;;;;;;;;;;;25.42;33.32;94943.59;4937324;28;7778;-60
2022/03/26 12:08:08;;;;;;;;;;;;;;;25.42;33.74;94940.84;4947226;28;9127;-60
2022/03/26 12:10:37;;;;;;;;;;;;;;;25.43;33.66;94945.09;4935341;28;7861;-60
2022/03/26 12:13:04;;;;;;;;;;;;;;;25.46;33.61;94940.59;4947708;28;7068;-59
2022/03/26 12:15:32;;;;;;;;;;;;;;;25.46;33.08;94935.84;4934023;28;8746;-60
2022/03/26 12:18:12;;;;;;;;;;;;;;;25.49;33.25;94934.09;4935851;28;7379;-60
2022/03/26 12:20:47;;;;;;;;;;;;;;;25.50;33.02;94930.84;4940158;28;7225;-60
2022/03/26 12:23:19;;;;;;;;;;;;;;;25.51;32.66;94924.09;4952811;28;7918;-60
2022/03/26 12:25:50;;;;;;;;;;;;;;;25.50;33.23;94925.34;4940050;28;7290;-60
2022/03/26 12:28:45;;;;;;;;;;;;;;;25.52;32.56;94922.06;4940040;28;7246;-60
2022/03/26 12:31:15;;;;;;;;;;;;;;;25.54;33.08;94923.09;4945791;28;9096;-60
2022/03/26 12:33:44;;;;;;;;;;;;;;;25.54;32.80;94914.81;4932021;29;9002;-60
2022/03/26 12:36:17;;;;;;;;;;;;;;;25.56;33.41;94917.81;4935535;28;7549;-60
2022/03/26 12:38:53;;;;;;;;;;;;;;;25.59;32.74;94925.09;4919320;28;9049;-60
2022/03/26 12:41:20;;;;;;;;;;;;;;;25.58;33.32;94915.31;4933132;28;7001;-60
2022/03/26 12:43:57;;;;;;;;;;;;;;;25.60;32.75;94912.81;4939656;28;9151;-60
2022/03/26 12:46:34;;;;;;;;;;;;;;;25.63;32.59;94911.06;4940242;28;7102;-60
2022/03/26 12:49:26;;;;;;;;;;;;;;;25.63;33.27;94913.84;4950936;28;7300;-60
2022/03/26 12:51:53;;;;;;;;;;;;;;;25.65;33.18;94912.09;4921956;28;7081;-61
2022/03/26 12:54:21;;;;;;;;;;;;;;;25.63;33.58;94906.31;4946132;28;7081;-60
2022/03/26 12:56:50;;;;;;;;;;;;;;;25.67;33.66;94906.84;4938076;28;9192;-60
2022/03/26 12:59:16;;;;;;;;;;;;;;;25.68;33.29;94907.59;4933815;28;7118;-60
2022/03/26 13:01:43;;;;;;;;;;;;;;;25.68;33.72;94905.59;4927565;28;7183;-60
2022/03/26 13:04:11;;;;;;;;;;;;;;;25.62;33.39;94899.31;4939786;28;9047;-60
2022/03/26 13:06:37;;;;;;;;;;;;;;;25.66;33.27;94899.84;4936753;28;8826;-60
2022/03/26 13:09:03;;;;;;;;;;;;;;;25.67;33.39;94901.31;4934618;28;7368;-60
2022/03/26 13:11:36;;;;;;;;;;;;;;;25.69;33.49;94900.81;4945723;28;9333;-60
2022/03/26 13:14:05;;;;;;;;;;;;;;;25.71;32.87;94895.59;4941164;28;7532;-61
2022/03/26 13:16:34;;;;;;;;;;;;;;;25.73;33.64;94893.81;4948167;28;9099;-60
2022/03/26 13:19:07;;;;;;;;;;;;;;;25.73;33.69;94893.81;4942922;28;7161;-60
2022/03/26 13:21:41;;;;;;;;;;;;;;;25.75;33.50;94887.81;4939628;28;9151;-60
2022/03/26 13:24:15;;;;;;;;;;;;;;;25.77;33.99;94891.56;4944081;28;7007;-61
2022/03/26 13:27:19;;;;;;;;;;;;;;;25.78;33.78;94884.03;4940693;28;8748;-60
2022/03/26 13:30:10;;;;;;;;;;;;;;;25.81;32.97;94888.56;4889098;29;7286;-60
2022/03/26 13:32:45;;;;;;;;;;;;;;;25.80;33.46;94879.53;4861561;29;9195;-60
2022/03/26 13:35:21;;;;;;;;;;;;;;;25.84;33.37;94876.53;4878262;29;7451;-61
2022/03/26 13:37:47;;;;;;;;;;;;;;;25.83;33.38;94870.28;4867089;29;8731;-60
2022/03/26 13:40:13;;;;;;;;;;;;;;;25.86;33.48;94871.28;4873333;29;9184;-61